createdAt,value
2023-12-23T00:01:22.281Z,3.00
2023-12-23T00:03:50.365Z,3.10
2023-12-23T00:06:18.486Z,2.80
2023-12-23T00:08:46.502Z,2.90
2023-12-23T00:11:14.527Z,2.70
2023-12-23T00:13:42.521Z,2.90
2023-12-23T00:16:10.497Z,2.40
2023-12-23T00:18:38.637Z,2.90
2023-12-23T00:21:07.921Z,3.30
2023-12-23T00:23:36.014Z,3.30
2023-12-23T00:26:04.588Z,2.40
2023-12-23T00:28:32.516Z,2.60
2023-12-23T00:31:00.674Z,2.80
2023-12-23T00:33:28.724Z,3.30
2023-12-23T00:35:56.710Z,2.70
2023-12-23T00:38:24.769Z,2.40
2023-12-23T00:40:52.881Z,2.70
2023-12-23T00:43:20.923Z,2.80
2023-12-23T00:45:48.848Z,2.70
2023-12-23T00:48:16.944Z,2.50
2023-12-23T00:50:45.330Z,2.80
2023-12-23T00:53:13.318Z,2.60
2023-12-23T00:55:41.395Z,2.70
2023-12-23T00:58:09.438Z,2.30
2023-12-23T01:00:39.242Z,2.90
2023-12-23T01:03:07.354Z,3.10
2023-12-23T01:05:35.310Z,2.30
2023-12-23T01:08:03.466Z,2.50
2023-12-23T01:10:31.554Z,2.60
2023-12-23T01:12:59.635Z,2.50
2023-12-23T01:15:28.491Z,2.00
2023-12-23T01:17:56.610Z,2.20
2023-12-23T01:20:24.930Z,2.40
2023-12-23T01:22:52.974Z,2.90
2023-12-23T01:25:23.584Z,2.60
2023-12-23T01:27:51.943Z,2.60
2023-12-23T01:30:20.025Z,3.00
2023-12-23T01:32:47.997Z,2.80
2023-12-23T01:35:16.239Z,2.60
2023-12-23T01:37:46.637Z,3.40
2023-12-23T01:40:15.040Z,2.40
2023-12-23T01:42:43.640Z,2.70
2023-12-23T01:45:12.890Z,2.50
2023-12-23T01:47:43.368Z,3.00
2023-12-23T01:50:13.573Z,2.40
2023-12-23T01:52:42.785Z,3.00
2023-12-23T01:55:11.794Z,2.50
2023-12-23T01:57:41.130Z,2.20
2023-12-23T02:00:11.018Z,2.60
2023-12-23T02:02:42.621Z,2.70
2023-12-23T02:05:12.148Z,2.40
2023-12-23T02:07:43.138Z,2.50
2023-12-23T02:10:11.494Z,3.00
2023-12-23T02:12:48.113Z,3.00
2023-12-23T02:15:18.017Z,2.50
2023-12-23T02:17:46.199Z,2.30
2023-12-23T02:20:14.966Z,2.30
2023-12-23T02:22:43.117Z,2.60
2023-12-23T02:25:11.093Z,2.50
2023-12-23T02:27:46.633Z,2.40
2023-12-23T02:30:17.287Z,2.70
2023-12-23T02:32:46.774Z,2.50
2023-12-23T02:35:15.111Z,2.70
2023-12-23T02:37:43.199Z,2.60
2023-12-23T02:40:12.874Z,2.50
2023-12-23T02:42:40.838Z,2.10
2023-12-23T02:45:09.963Z,2.10
2023-12-23T02:47:38.328Z,2.20
2023-12-23T02:50:08.314Z,2.10
2023-12-23T02:52:36.562Z,3.00
2023-12-23T02:55:06.791Z,2.40
2023-12-23T02:57:36.479Z,2.80
2023-12-23T03:00:06.694Z,2.20
2023-12-23T03:02:34.741Z,2.10
2023-12-23T03:05:03.246Z,2.00
2023-12-23T03:07:31.296Z,2.20
2023-12-23T03:09:59.317Z,2.30
2023-12-23T03:12:27.566Z,2.20
2023-12-23T03:14:55.660Z,2.30
2023-12-23T03:17:26.000Z,1.90
2023-12-23T03:19:55.719Z,2.40
2023-12-23T03:22:23.823Z,1.90
2023-12-23T03:24:51.904Z,2.30
2023-12-23T03:27:20.422Z,2.10
2023-12-23T03:29:48.574Z,2.70
2023-12-23T03:32:17.739Z,2.60
2023-12-23T03:34:46.052Z,2.10
2023-12-23T03:37:14.822Z,1.90
2023-12-23T03:39:44.618Z,2.30
2023-12-23T03:42:12.725Z,1.90
2023-12-23T03:44:40.759Z,2.00
2023-12-23T03:47:09.986Z,2.10
2023-12-23T03:49:38.388Z,2.50
2023-12-23T03:52:06.431Z,2.90
2023-12-23T03:54:34.441Z,2.00
2023-12-23T03:57:02.845Z,1.60
2023-12-23T03:59:30.904Z,1.80
2023-12-23T04:01:59.559Z,2.30
2023-12-23T04:04:27.740Z,2.70
2023-12-23T04:06:55.932Z,1.80
2023-12-23T04:09:24.092Z,2.10
2023-12-23T04:11:52.605Z,2.10
2023-12-23T04:14:20.672Z,2.20
2023-12-23T04:16:48.870Z,2.20
2023-12-23T04:19:17.315Z,2.30
2023-12-23T04:21:45.313Z,1.80
2023-12-23T04:24:13.482Z,1.60
2023-12-23T04:26:41.476Z,2.50
2023-12-23T04:29:10.131Z,2.00
2023-12-23T04:31:38.407Z,3.20
2023-12-23T04:34:08.026Z,2.30
2023-12-23T04:36:36.225Z,2.50
2023-12-23T04:39:06.362Z,2.30
2023-12-23T04:41:34.851Z,1.70
2023-12-23T04:44:03.921Z,1.70
2023-12-23T04:46:32.941Z,1.90
2023-12-23T04:49:01.045Z,1.70
2023-12-23T04:51:32.107Z,2.00
2023-12-23T04:54:00.050Z,2.80
2023-12-23T04:56:28.292Z,2.00
2023-12-23T04:58:57.089Z,2.10
2023-12-23T05:01:26.192Z,2.60
2023-12-23T05:03:54.238Z,2.10
2023-12-23T05:06:22.405Z,2.00
2023-12-23T05:08:50.396Z,2.00
2023-12-23T05:11:18.677Z,2.30
2023-12-23T05:13:46.820Z,1.90
2023-12-23T05:16:14.979Z,2.10
2023-12-23T05:18:43.061Z,1.90
2023-12-23T05:21:11.204Z,2.20
2023-12-23T05:23:40.734Z,2.20
2023-12-23T05:26:09.574Z,1.80
2023-12-23T05:28:37.793Z,1.70
2023-12-23T05:31:06.069Z,1.80
2023-12-23T05:33:34.136Z,1.70
2023-12-23T05:36:02.214Z,1.90
2023-12-23T05:38:30.711Z,2.10
2023-12-23T05:40:58.827Z,1.50
2023-12-23T05:43:26.856Z,2.00
2023-12-23T05:45:54.895Z,1.90
2023-12-23T05:48:23.059Z,1.70
2023-12-23T05:50:51.110Z,1.30
2023-12-23T05:53:19.127Z,2.50
2023-12-23T05:55:47.697Z,1.40
2023-12-23T05:58:15.790Z,2.70
2023-12-23T06:00:43.818Z,2.20
2023-12-23T06:03:11.978Z,1.70
2023-12-23T06:05:40.101Z,2.00
2023-12-23T06:08:09.176Z,2.10
2023-12-23T06:10:47.402Z,2.20
2023-12-23T06:13:22.686Z,2.00
2023-12-23T06:15:50.630Z,2.20
2023-12-23T06:18:18.723Z,2.60
2023-12-23T06:20:46.817Z,1.50
2023-12-23T06:23:14.895Z,2.20
2023-12-23T06:25:42.991Z,2.40
2023-12-23T06:28:11.111Z,1.90
2023-12-23T06:30:39.118Z,2.10
2023-12-23T06:33:07.303Z,1.70
2023-12-23T06:35:35.587Z,1.90
2023-12-23T06:38:04.026Z,1.90
2023-12-23T06:40:32.608Z,1.90
2023-12-23T06:43:01.159Z,2.10
2023-12-23T06:45:49.099Z,2.00
2023-12-23T06:48:20.914Z,2.20
2023-12-23T06:50:49.384Z,2.10
2023-12-23T06:53:18.358Z,1.90
2023-12-23T06:55:46.696Z,2.50
2023-12-23T06:58:14.909Z,1.90
2023-12-23T07:00:43.513Z,1.70
2023-12-23T07:03:11.605Z,1.70
2023-12-23T07:05:39.751Z,2.00
2023-12-23T07:08:08.902Z,1.40
2023-12-23T07:10:36.971Z,2.00
2023-12-23T07:13:05.735Z,1.60
2023-12-23T07:15:33.736Z,2.40
2023-12-23T07:18:01.865Z,2.50
2023-12-23T07:20:30.804Z,2.30
2023-12-23T07:22:58.859Z,2.20
2023-12-23T07:25:26.859Z,2.60
2023-12-23T07:27:54.953Z,2.30
2023-12-23T07:30:22.971Z,2.00
2023-12-23T07:32:52.536Z,1.80
2023-12-23T07:35:22.140Z,1.90
2023-12-23T07:37:51.909Z,2.30
2023-12-23T07:40:20.261Z,1.50
2023-12-23T07:42:48.603Z,1.70
2023-12-23T07:45:17.061Z,1.80
2023-12-23T07:47:48.541Z,2.50
2023-12-23T07:50:20.679Z,1.80
2023-12-23T07:52:48.978Z,1.70
2023-12-23T07:55:17.324Z,1.80
2023-12-23T07:57:49.785Z,2.30
2023-12-23T08:00:19.619Z,1.70
2023-12-23T08:02:47.680Z,2.10
2023-12-23T08:05:17.311Z,2.30
2023-12-23T08:07:45.730Z,2.30
2023-12-23T08:10:17.856Z,2.10
2023-12-23T08:12:45.817Z,1.90
2023-12-23T08:15:14.033Z,2.30
2023-12-23T08:17:42.202Z,1.90
2023-12-23T08:20:11.798Z,1.60
2023-12-23T08:22:42.317Z,1.70
2023-12-23T08:25:15.558Z,2.40
2023-12-23T08:27:47.293Z,2.20
2023-12-23T08:30:16.312Z,2.00
2023-12-23T08:32:44.682Z,1.60
2023-12-23T08:35:14.855Z,2.50
2023-12-23T08:37:43.416Z,2.20
2023-12-23T08:40:13.041Z,2.20
2023-12-23T08:42:41.846Z,2.10
2023-12-23T08:45:10.856Z,2.10
2023-12-23T08:47:43.268Z,1.90
2023-12-23T08:50:12.254Z,2.40
2023-12-23T08:52:40.441Z,2.70
2023-12-23T08:55:09.924Z,2.20
2023-12-23T08:57:38.319Z,2.00
2023-12-23T09:00:09.955Z,2.00
2023-12-23T09:02:38.090Z,2.20
2023-12-23T09:05:08.135Z,2.10
2023-12-23T09:07:36.574Z,2.20
2023-12-23T09:10:08.951Z,2.20
2023-12-23T09:12:43.892Z,2.30
2023-12-23T09:15:12.146Z,2.30
2023-12-23T09:17:40.403Z,3.20
2023-12-23T09:20:11.328Z,2.40
2023-12-23T09:22:39.487Z,2.10
2023-12-23T09:25:08.493Z,2.20
2023-12-23T09:27:36.597Z,1.80
2023-12-23T09:30:07.328Z,2.40
2023-12-23T09:32:35.846Z,2.20
2023-12-23T09:35:06.261Z,2.00
2023-12-23T09:37:34.883Z,1.90
2023-12-23T09:40:08.930Z,1.70
2023-12-23T09:42:40.927Z,2.40
2023-12-23T09:45:13.670Z,2.50
2023-12-23T09:47:42.183Z,1.80
2023-12-23T09:50:10.938Z,2.30
2023-12-23T09:52:39.643Z,2.40
2023-12-23T09:55:12.284Z,1.90
2023-12-23T09:57:43.855Z,2.40
2023-12-23T10:00:15.139Z,2.20
2023-12-23T10:02:43.361Z,2.00
2023-12-23T10:05:11.837Z,1.70
2023-12-23T10:07:40.165Z,2.20
2023-12-23T10:10:11.164Z,2.20
2023-12-23T10:12:39.404Z,2.00
2023-12-23T10:15:08.227Z,2.00
2023-12-23T10:17:38.904Z,2.20
2023-12-23T10:20:11.526Z,2.40
2023-12-23T10:22:42.606Z,2.50
2023-12-23T10:25:10.726Z,2.40
2023-12-23T10:27:41.943Z,2.30
2023-12-23T10:30:13.057Z,2.70
2023-12-23T10:32:56.965Z,2.60
2023-12-23T10:35:28.202Z,2.50
2023-12-23T10:38:00.082Z,2.30
2023-12-23T10:40:29.893Z,3.40
2023-12-23T10:43:02.499Z,3.30
2023-12-23T10:45:34.271Z,2.60
2023-12-23T10:48:06.783Z,3.00
2023-12-23T10:50:36.582Z,3.60
2023-12-23T10:53:11.346Z,2.70
2023-12-23T10:55:40.552Z,3.10
2023-12-23T10:58:11.494Z,3.10
2023-12-23T11:00:44.537Z,3.20
2023-12-23T11:03:13.800Z,3.60
2023-12-23T11:05:43.247Z,3.30
2023-12-23T11:08:17.513Z,2.90
2023-12-23T11:10:48.151Z,3.30
2023-12-23T11:13:16.246Z,3.20
2023-12-23T11:15:44.836Z,2.90
2023-12-23T11:18:13.246Z,2.80
2023-12-23T11:20:55.184Z,2.50
2023-12-23T11:23:36.611Z,3.30
2023-12-23T11:26:26.071Z,3.50
2023-12-23T11:28:57.209Z,3.30
2023-12-23T11:31:25.913Z,3.00
2023-12-23T11:33:54.312Z,3.80
2023-12-23T11:36:23.413Z,3.40
2023-12-23T11:39:00.793Z,4.80
2023-12-23T11:41:30.490Z,3.20
2023-12-23T11:43:59.941Z,3.30
2023-12-23T11:46:34.948Z,3.10
2023-12-23T11:51:32.500Z,2.80
2023-12-23T11:54:05.079Z,2.70
2023-12-23T11:56:33.332Z,2.70
2023-12-23T11:59:03.144Z,2.50
2023-12-23T12:01:33.914Z,2.70
2023-12-23T12:04:07.391Z,2.80
2023-12-23T12:06:38.701Z,2.80
2023-12-23T12:09:07.817Z,2.30
2023-12-23T12:11:36.321Z,3.00
2023-12-23T12:14:06.710Z,2.60
2023-12-23T12:16:40.779Z,2.70
2023-12-23T12:19:09.357Z,2.70
2023-12-23T12:25:14.752Z,2.70
2023-12-23T12:27:46.852Z,2.60
2023-12-23T12:30:17.791Z,3.10
2023-12-23T12:32:51.515Z,2.90
2023-12-23T12:35:26.174Z,2.80
2023-12-23T12:38:05.173Z,3.70
2023-12-23T12:40:43.837Z,2.80
2023-12-23T12:43:17.203Z,2.80
2023-12-23T12:45:51.644Z,2.40
2023-12-23T12:48:24.422Z,2.10
2023-12-23T12:50:58.845Z,2.70
2023-12-23T12:53:32.235Z,2.10
2023-12-23T12:56:13.018Z,2.30
2023-12-23T12:58:47.822Z,2.40
2023-12-23T13:01:19.100Z,2.50
2023-12-23T13:03:50.382Z,3.00
2023-12-23T13:06:21.378Z,2.50
2023-12-23T13:08:53.702Z,2.50
2023-12-23T13:11:28.501Z,2.60
2023-12-23T13:13:59.675Z,2.60
2023-12-23T13:16:30.901Z,2.70
2023-12-23T13:19:02.161Z,2.60
2023-12-23T13:21:33.506Z,2.20
2023-12-23T13:24:04.700Z,2.60
2023-12-23T13:26:35.565Z,2.40
2023-12-23T13:29:07.479Z,2.50
2023-12-23T13:31:38.714Z,3.00
2023-12-23T13:34:12.000Z,2.50
2023-12-23T13:36:43.310Z,2.60
2023-12-23T13:39:14.400Z,2.50
2023-12-23T13:41:46.693Z,2.60
2023-12-23T13:44:17.897Z,2.20
2023-12-23T13:46:50.402Z,2.10
2023-12-23T13:49:21.643Z,2.20
2023-12-23T13:52:03.371Z,2.30
2023-12-23T13:54:39.456Z,2.40
2023-12-23T13:57:10.879Z,2.80
2023-12-23T13:59:50.393Z,2.60
2023-12-23T14:02:48.729Z,2.20
2023-12-23T14:05:39.007Z,3.00
2023-12-23T14:08:39.946Z,2.20
2023-12-23T14:11:52.425Z,3.00
2023-12-23T14:19:01.985Z,1.90
2023-12-23T14:21:38.655Z,2.10
2023-12-23T14:24:18.313Z,2.10
2023-12-23T14:27:16.189Z,1.80
2023-12-23T14:29:49.817Z,2.10
2023-12-23T14:32:21.156Z,1.90
2023-12-23T14:34:52.360Z,1.90
2023-12-23T14:37:24.787Z,2.10
2023-12-23T14:39:58.849Z,2.10
2023-12-23T14:42:30.814Z,2.40
2023-12-23T14:45:06.584Z,2.20
2023-12-23T14:47:37.461Z,2.10
2023-12-23T14:50:11.481Z,2.40
2023-12-23T14:52:43.664Z,1.90
2023-12-23T14:55:14.675Z,2.00
2023-12-23T14:57:46.014Z,2.00
2023-12-23T15:00:25.666Z,2.10
2023-12-23T15:06:54.943Z,2.60
2023-12-23T15:09:32.258Z,1.90
2023-12-23T15:12:04.508Z,1.90
2023-12-23T15:14:36.109Z,2.00
2023-12-23T15:17:08.415Z,2.60
2023-12-23T15:19:40.101Z,2.10
2023-12-23T15:22:11.479Z,2.00
2023-12-23T15:24:42.377Z,2.30
2023-12-23T15:27:13.373Z,2.00
2023-12-23T15:29:44.743Z,2.30
2023-12-23T15:32:15.950Z,2.00
2023-12-23T15:34:47.068Z,2.70
2023-12-23T15:37:18.200Z,2.20
2023-12-23T15:39:49.627Z,1.90
2023-12-23T15:42:21.393Z,2.40
2023-12-23T15:44:52.701Z,2.50
2023-12-23T15:47:25.035Z,2.00
2023-12-23T15:50:26.816Z,2.50
2023-12-23T15:53:23.116Z,3.00
2023-12-23T15:55:57.708Z,3.90
2023-12-23T15:59:15.771Z,3.90
2023-12-23T16:01:46.841Z,3.60
2023-12-23T16:04:17.840Z,4.30
2023-12-23T16:06:48.971Z,4.50
2023-12-23T16:31:21.517Z,5.40
2023-12-23T16:33:54.683Z,5.60
2023-12-23T16:36:25.850Z,4.10
2023-12-23T16:38:56.894Z,4.50
2023-12-23T16:41:28.012Z,3.40
2023-12-23T16:43:59.506Z,3.80
2023-12-23T16:46:30.515Z,3.20
2023-12-23T16:49:01.502Z,3.40
2023-12-23T16:51:32.396Z,3.10
2023-12-23T16:54:04.026Z,3.30
2023-12-23T16:56:37.652Z,2.70
2023-12-23T16:59:08.547Z,3.40
2023-12-23T17:01:40.195Z,3.20
2023-12-23T17:04:11.277Z,3.00
2023-12-23T17:06:45.838Z,3.30
2023-12-23T17:09:16.950Z,3.20
2023-12-23T17:11:50.264Z,3.10
2023-12-23T17:14:23.708Z,3.80
2023-12-23T17:16:57.616Z,3.40
2023-12-23T17:19:29.233Z,3.00
2023-12-23T17:22:00.288Z,3.80
2023-12-23T17:24:36.764Z,3.20
2023-12-23T17:27:16.626Z,3.50
2023-12-23T17:29:49.375Z,3.20
2023-12-23T17:32:27.415Z,4.00
2023-12-23T17:34:58.479Z,3.00
2023-12-23T17:37:30.792Z,3.40
2023-12-23T17:40:01.792Z,3.40
2023-12-23T17:42:32.748Z,3.00
2023-12-23T17:45:04.010Z,3.10
2023-12-23T17:47:36.844Z,3.50
2023-12-23T17:50:09.837Z,3.20
2023-12-23T17:52:41.675Z,3.10
2023-12-23T17:55:12.956Z,3.80
2023-12-23T17:57:44.446Z,3.30
2023-12-23T18:00:18.080Z,4.10
2023-12-23T18:03:00.044Z,3.50
2023-12-23T18:05:34.030Z,3.70
2023-12-23T18:08:06.478Z,3.20
2023-12-23T18:10:37.579Z,3.20
2023-12-23T18:13:12.155Z,3.60
2023-12-23T18:15:42.988Z,3.30
2023-12-23T18:18:13.806Z,3.00
2023-12-23T18:20:44.797Z,3.30
2023-12-23T18:23:17.796Z,3.40
2023-12-23T18:25:48.765Z,3.10
2023-12-23T18:28:20.061Z,3.40
2023-12-23T18:30:51.151Z,3.80
2023-12-23T18:33:30.175Z,3.20
2023-12-23T18:36:04.657Z,3.70
2023-12-23T18:38:36.154Z,3.80
2023-12-23T18:41:09.359Z,3.50
2023-12-23T18:43:40.679Z,3.30
2023-12-23T18:46:14.349Z,3.90
2023-12-23T18:48:46.168Z,4.00
2023-12-23T18:51:17.393Z,4.20
2023-12-23T18:53:48.770Z,4.00
2023-12-23T18:56:19.662Z,4.80
2023-12-23T18:58:50.468Z,4.30
2023-12-23T19:01:22.821Z,3.90
2023-12-23T19:03:55.711Z,3.70
2023-12-23T19:06:26.853Z,4.70
2023-12-23T19:08:57.730Z,3.70
2023-12-23T19:11:29.009Z,4.60
2023-12-23T19:14:00.360Z,5.10
2023-12-23T19:16:33.469Z,4.20
2023-12-23T19:19:05.705Z,5.30
2023-12-23T19:21:42.620Z,5.00
2023-12-23T19:24:14.319Z,4.10
2023-12-23T19:26:45.847Z,4.70
2023-12-23T19:29:17.115Z,3.70
2023-12-23T19:31:48.694Z,5.00
2023-12-23T19:34:21.734Z,4.80
2023-12-23T19:36:53.077Z,4.00
2023-12-23T19:39:26.506Z,4.20
2023-12-23T19:41:57.973Z,3.70
2023-12-23T19:44:32.179Z,3.60
2023-12-23T19:47:03.831Z,3.50
2023-12-23T19:49:35.238Z,3.90
2023-12-23T19:52:40.890Z,3.90
2023-12-23T19:55:13.957Z,4.00
2023-12-23T19:57:51.471Z,4.10
2023-12-23T20:00:41.288Z,4.60
2023-12-23T20:03:16.721Z,3.90
2023-12-23T20:05:52.777Z,4.00
2023-12-23T20:08:54.537Z,3.70
2023-12-23T20:11:29.815Z,3.60
2023-12-23T20:16:36.997Z,3.70
2023-12-23T20:19:09.403Z,4.00
2023-12-23T20:21:43.381Z,4.90
2023-12-23T20:24:25.409Z,4.90
2023-12-23T20:27:06.637Z,4.80
2023-12-23T20:29:37.953Z,5.40
2023-12-23T20:32:11.884Z,4.70
2023-12-23T20:35:06.274Z,5.30
2023-12-23T20:38:36.871Z,5.30
2023-12-23T20:44:46.447Z,4.60
2023-12-23T20:47:25.731Z,4.80
2023-12-23T20:52:45.561Z,4.40
2023-12-23T20:55:26.101Z,5.20
2023-12-23T20:58:04.352Z,4.20
2023-12-23T21:00:47.817Z,4.90
2023-12-23T21:03:19.620Z,5.20
2023-12-23T21:06:01.787Z,5.50
2023-12-23T21:12:48.408Z,4.70
2023-12-23T21:15:49.654Z,5.60
2023-12-23T21:18:37.023Z,4.70
2023-12-23T21:21:58.822Z,4.90
2023-12-23T21:24:32.225Z,4.70
2023-12-23T21:27:14.570Z,4.30
2023-12-23T21:30:02.338Z,5.00
2023-12-23T21:32:34.773Z,5.10
2023-12-23T21:35:24.458Z,4.80
2023-12-23T21:37:55.534Z,5.50
2023-12-23T21:40:26.493Z,5.40
2023-12-23T21:42:58.547Z,5.40
2023-12-23T21:45:31.933Z,5.30
2023-12-23T21:48:05.610Z,6.10
2023-12-23T21:50:38.466Z,6.20
2023-12-23T21:53:12.849Z,6.00
2023-12-23T21:55:44.585Z,6.70
2023-12-23T21:58:16.026Z,5.70
2023-12-23T22:00:49.070Z,5.80
2023-12-23T22:03:20.716Z,5.60
2023-12-23T22:05:51.848Z,7.60
2023-12-23T22:08:23.140Z,6.50
2023-12-23T22:10:56.176Z,7.30
2023-12-23T22:13:27.203Z,6.60
2023-12-23T22:15:58.269Z,6.10
2023-12-23T22:18:29.599Z,6.50
2023-12-23T22:21:00.444Z,5.80
2023-12-23T22:23:33.036Z,6.10
2023-12-23T22:26:04.393Z,6.10
2023-12-23T22:28:35.757Z,6.00
2023-12-23T22:31:07.617Z,5.40
2023-12-23T22:33:40.071Z,5.60
2023-12-23T22:36:12.412Z,5.70
2023-12-23T22:38:50.486Z,5.80
2023-12-23T22:41:21.806Z,5.50
2023-12-23T22:44:03.053Z,5.90
2023-12-23T22:46:40.112Z,4.50
2023-12-23T22:49:11.504Z,5.10
2023-12-23T22:51:43.997Z,5.30
2023-12-23T22:54:16.904Z,4.90
2023-12-23T22:56:47.882Z,5.30
2023-12-23T22:59:18.747Z,4.40
2023-12-23T23:01:49.799Z,5.00
2023-12-23T23:04:20.880Z,4.80
2023-12-23T23:06:51.813Z,5.10
2023-12-23T23:09:23.094Z,4.70
2023-12-23T23:11:54.234Z,4.60
2023-12-23T23:14:29.138Z,5.70
2023-12-23T23:17:00.108Z,4.30
2023-12-23T23:19:31.506Z,4.70
2023-12-23T23:22:02.501Z,5.50
2023-12-23T23:24:33.337Z,4.40
2023-12-23T23:27:04.256Z,5.10
2023-12-23T23:29:36.511Z,5.00
2023-12-23T23:32:07.956Z,4.00
2023-12-23T23:34:38.848Z,4.40
2023-12-23T23:37:10.283Z,4.50
2023-12-23T23:40:24.148Z,4.90
2023-12-23T23:42:55.601Z,4.50
2023-12-23T23:45:26.708Z,4.30
2023-12-23T23:47:57.682Z,4.40
2023-12-23T23:50:28.619Z,3.90
2023-12-23T23:52:59.652Z,4.00
2023-12-23T23:55:30.670Z,3.70
2023-12-23T23:58:01.739Z,4.10
